Time;durP1;ratioP1;P1;durP2;ratioP2;P2;SDS_P1;SDS_P2;PMS_P1;PMS_P2;Temp;Humidity;BMP_temperature;BMP_pressure;BME280_temperature;BME280_humidity;BME280_pressure;Samples;Min_cycle;Max_cycle;Signal;HPM_P1;HPM_P2
2023/07/23 00:02:15;;;;;;;1.58;1.20;;;;;;;17.40;100.00;96128.16;5078419;28;20200;-68
2023/07/23 00:04:42;;;;;;;2.47;1.13;;;;;;;17.45;100.00;96128.31;5077875;28;20203;-67
2023/07/23 00:07:08;;;;;;;4.18;1.40;;;;;;;17.36;100.00;96131.47;5077617;28;20207;-68
2023/07/23 00:09:35;;;;;;;2.92;1.92;;;;;;;17.26;100.00;96137.31;5077694;28;20208;-68
2023/07/23 00:12:02;;;;;;;2.20;1.40;;;;;;;17.31;100.00;96124.16;5078290;28;20200;-68
2023/07/23 00:14:30;;;;;;;2.58;1.10;;;;;;;17.38;100.00;96130.22;5078281;28;20223;-68
2023/07/23 00:16:56;;;;;;;5.07;1.10;;;;;;;17.16;100.00;96126.31;5077318;28;20279;-68
2023/07/23 00:19:23;;;;;;;2.33;1.27;;;;;;;17.27;100.00;96128.31;5077532;28;20387;-68
2023/07/23 00:21:50;;;;;;;4.43;1.50;;;;;;;17.36;100.00;96126.97;5077719;28;20211;-68
2023/07/23 00:24:19;;;;;;;4.78;1.27;;;;;;;17.31;100.00;96126.00;5078305;28;20215;-69
2023/07/23 00:26:46;;;;;;;3.22;1.48;;;;;;;17.37;100.00;96123.25;5078384;28;20200;-68
2023/07/23 00:29:12;;;;;;;4.90;1.92;;;;;;;17.35;100.00;96132.50;5076635;28;20208;-68
2023/07/23 00:31:40;;;;;;;2.33;1.60;;;;;;;17.46;100.00;96137.91;5077644;28;20235;-68
2023/07/23 00:34:08;;;;;;;6.25;1.95;;;;;;;17.26;100.00;96124.00;5077622;28;20679;-68
2023/07/23 00:36:35;;;;;;;6.18;1.92;;;;;;;17.26;100.00;96124.00;5077545;28;20300;-68
2023/07/23 00:39:03;;;;;;;3.42;1.50;;;;;;;17.26;100.00;96124.00;5076622;28;21142;-69
2023/07/23 00:41:29;;;;;;;3.08;1.65;;;;;;;17.18;100.00;96126.94;5077471;28;20599;-68
2023/07/23 00:43:56;;;;;;;3.38;1.88;;;;;;;17.30;100.00;96133.19;5076474;28;20207;-67
2023/07/23 00:46:23;;;;;;;3.05;1.58;;;;;;;17.27;100.00;96122.97;5077219;28;20563;-67
2023/07/23 00:48:51;;;;;;;4.30;1.88;;;;;;;17.32;100.00;96120.47;5076644;28;20204;-68
2023/07/23 00:51:17;;;;;;;2.72;1.60;;;;;;;16.99;100.00;96126.28;5077258;28;20230;-68
2023/07/23 00:53:45;;;;;;;3.10;1.63;;;;;;;17.14;100.00;96120.41;5076872;28;20206;-69
2023/07/23 00:56:12;;;;;;;2.10;1.10;;;;;;;16.92;100.00;96117.56;5077688;28;20216;-67
2023/07/23 00:58:39;;;;;;;4.47;1.70;;;;;;;16.98;100.00;96116.66;5076688;28;20535;-68
2023/07/23 01:01:08;;;;;;;2.33;1.33;;;;;;;17.01;100.00;96116.25;5076579;28;20306;-68
2023/07/23 01:03:35;;;;;;;2.47;1.25;;;;;;;17.03;100.00;96115.00;5076831;28;20579;-68
2023/07/23 01:06:04;;;;;;;2.33;1.30;;;;;;;17.12;100.00;96113.69;5077529;28;20196;-68
2023/07/23 01:08:32;;;;;;;3.85;1.23;;;;;;;17.00;100.00;96109.28;5075973;28;20663;-67
2023/07/23 01:10:59;;;;;;;1.90;1.08;;;;;;;16.90;100.00;96112.44;5076996;28;20224;-67
2023/07/23 01:13:26;;;;;;;5.03;1.33;;;;;;;16.84;100.00;96109.84;5077030;28;20204;-67
2023/07/23 01:15:53;;;;;;;2.85;1.30;;;;;;;16.92;100.00;96113.03;5076566;28;20220;-68
2023/07/23 01:18:21;;;;;;;2.65;1.45;;;;;;;16.91;100.00;96110.59;5076157;28;20210;-68
2023/07/23 01:20:47;;;;;;;2.38;1.35;;;;;;;16.64;100.00;96109.19;5076768;28;20224;-67
2023/07/23 01:23:15;;;;;;;2.47;1.48;;;;;;;16.87;100.00;96109.41;5076934;28;20204;-67
2023/07/23 01:25:43;;;;;;;2.63;1.38;;;;;;;16.63;100.00;96107.56;5076812;28;20200;-68
2023/07/23 01:28:09;;;;;;;2.38;1.15;;;;;;;16.62;100.00;96113.91;5075888;28;20211;-69
2023/07/23 01:30:36;;;;;;;3.15;1.48;;;;;;;16.63;100.00;96105.72;5076275;28;20251;-69
2023/07/23 01:33:04;;;;;;;2.60;1.25;;;;;;;16.63;100.00;96108.38;5076783;28;20593;-67
2023/07/23 01:35:31;;;;;;;4.13;1.33;;;;;;;16.54;100.00;96098.22;5076341;28;20231;-67
2023/07/23 01:37:59;;;;;;;2.53;1.20;;;;;;;16.56;100.00;96107.63;5076492;28;20204;-68
2023/07/23 01:40:27;;;;;;;2.35;1.27;;;;;;;16.70;100.00;96103.81;5076216;28;20225;-68
2023/07/23 01:42:54;;;;;;;2.88;1.48;;;;;;;16.53;100.00;96110.72;5076051;28;20296;-67
2023/07/23 01:45:21;;;;;;;3.22;1.40;;;;;;;16.47;100.00;96108.13;5077080;28;20604;-69
2023/07/23 01:47:47;;;;;;;4.07;1.63;;;;;;;16.48;100.00;96101.75;5075647;28;20211;-67
2023/07/23 01:50:14;;;;;;;3.22;1.40;;;;;;;16.56;100.00;96106.81;5076464;28;20227;-68
2023/07/23 01:52:41;;;;;;;5.82;1.77;;;;;;;16.76;100.00;96099.47;5076443;28;20203;-68
2023/07/23 01:55:09;;;;;;;3.10;1.60;;;;;;;16.73;100.00;96098.06;5078458;28;20623;-67
2023/07/23 01:57:37;;;;;;;2.95;1.40;;;;;;;16.86;100.00;96095.28;5079512;28;20206;-69
2023/07/23 02:00:04;;;;;;;1.92;1.10;;;;;;;16.64;100.00;96101.22;5080236;28;20222;-69
2023/07/23 02:02:31;;;;;;;2.28;1.20;;;;;;;16.51;100.00;96099.47;5080562;28;20260;-68
2023/07/23 02:04:57;;;;;;;3.00;1.25;;;;;;;16.59;100.00;96093.06;5080151;28;20283;-68
2023/07/23 02:07:24;;;;;;;2.05;1.50;;;;;;;16.48;100.00;96093.75;5079664;28;20215;-67
2023/07/23 02:09:51;;;;;;;1.20;1.05;;;;;;;16.48;100.00;96093.75;5080242;28;20223;-68
2023/07/23 02:12:18;;;;;;;2.25;1.52;;;;;;;16.41;100.00;96098.31;5080028;28;20841;-68
2023/07/23 02:14:46;;;;;;;1.38;0.90;;;;;;;16.57;100.00;96093.28;5080240;28;20235;-68
2023/07/23 02:17:12;;;;;;;2.80;1.20;;;;;;;16.41;100.00;96087.69;5079987;28;20203;-68
2023/07/23 02:19:39;;;;;;;4.47;1.65;;;;;;;16.39;100.00;96092.41;5080410;28;20250;-68
2023/07/23 02:22:06;;;;;;;2.33;1.40;;;;;;;16.44;100.00;96089.91;5080131;28;20210;-68
2023/07/23 02:24:32;;;;;;;3.60;1.73;;;;;;;16.38;100.00;96096.09;5079972;28;21241;-68
2023/07/23 02:26:59;;;;;;;1.88;1.25;;;;;;;16.44;100.00;96092.56;5079763;28;20215;-68
2023/07/23 02:29:25;;;;;;;3.40;1.67;;;;;;;16.42;100.00;96099.13;5079877;28;20208;-67
2023/07/23 02:31:53;;;;;;;2.60;1.42;;;;;;;16.59;100.00;96088.56;5079415;28;21180;-68
2023/07/23 02:34:20;;;;;;;1.98;1.17;;;;;;;16.35;100.00;96093.84;5079897;28;20748;-67
2023/07/23 02:36:47;;;;;;;3.03;1.50;;;;;;;16.40;100.00;96096.69;5079743;28;20204;-68
2023/07/23 02:39:13;;;;;;;1.83;0.88;;;;;;;16.31;100.00;96092.66;5079036;28;20789;-68
2023/07/23 02:41:40;;;;;;;2.13;1.20;;;;;;;16.30;100.00;96101.66;5079854;28;20216;-69
2023/07/23 02:44:06;;;;;;;4.70;1.58;;;;;;;16.35;100.00;96093.84;5079758;28;20203;-69
2023/07/23 02:46:33;;;;;;;4.95;2.15;;;;;;;16.37;100.00;96083.00;5079495;28;20204;-67
2023/07/23 02:49:01;;;;;;;3.75;1.85;;;;;;;16.62;100.00;96087.31;5079147;28;20210;-69
2023/07/23 02:51:27;;;;;;;3.38;1.58;;;;;;;16.49;100.00;96084.75;5078174;28;20235;-68
2023/07/23 02:53:54;;;;;;;2.88;1.75;;;;;;;16.46;100.00;96090.53;5079487;28;20816;-67
2023/07/23 02:56:20;;;;;;;4.00;1.75;;;;;;;16.50;100.00;96086.38;5079109;28;20227;-67
2023/07/23 02:58:47;;;;;;;3.08;1.60;;;;;;;16.50;100.00;96089.06;5079360;28;20200;-68
2023/07/23 03:01:13;;;;;;;3.25;1.38;;;;;;;16.64;100.00;96098.56;5078643;28;20224;-69
2023/07/23 03:03:40;;;;;;;4.15;1.92;;;;;;;16.56;100.00;96091.66;5078876;28;20208;-67
2023/07/23 03:06:08;;;;;;;2.88;1.25;;;;;;;16.72;100.00;96100.94;5079065;28;20208;-67
2023/07/23 03:08:35;;;;;;;5.53;1.75;;;;;;;16.59;100.00;96098.41;5078030;28;20204;-68
2023/07/23 03:11:01;;;;;;;2.20;1.33;;;;;;;16.61;100.00;96102.47;5078714;28;20595;-69
2023/07/23 03:13:29;;;;;;;3.17;1.70;;;;;;;16.61;100.00;96099.81;5079164;28;20207;-68
2023/07/23 03:15:55;;;;;;;2.47;1.73;;;;;;;16.72;100.00;96100.94;5079012;28;20222;-67
2023/07/23 03:18:22;;;;;;;2.92;1.85;;;;;;;16.69;100.00;96094.19;5077690;28;20211;-68
2023/07/23 03:20:48;;;;;;;4.70;2.03;;;;;;;16.70;100.00;96092.34;5078973;28;20238;-67
2023/07/23 03:23:16;;;;;;;3.17;1.63;;;;;;;16.91;100.00;96081.31;5079390;28;20200;-68
2023/07/23 03:25:42;;;;;;;2.63;1.90;;;;;;;16.63;100.00;96086.28;5078585;28;21062;-68
2023/07/23 03:28:09;;;;;;;3.80;1.65;;;;;;;16.72;100.00;96098.28;5078265;28;20211;-67
2023/07/23 03:30:35;;;;;;;5.00;1.70;;;;;;;16.66;100.00;96080.50;5078826;28;20749;-67
2023/07/23 03:33:02;;;;;;;4.97;1.90;;;;;;;16.60;100.00;96087.53;5078742;28;20204;-69
2023/07/23 03:35:28;;;;;;;8.35;2.05;;;;;;;16.59;100.00;96085.09;5078373;28;20232;-69
2023/07/23 03:37:55;;;;;;;3.55;1.90;;;;;;;16.53;100.00;96085.94;5077975;28;20203;-68
2023/07/23 03:40:23;;;;;;;3.22;1.95;;;;;;;16.66;100.00;96086.66;5078834;28;20228;-69
2023/07/23 03:42:49;;;;;;;3.95;2.03;;;;;;;16.55;100.00;96081.25;5078449;28;20219;-68
2023/07/23 03:45:16;;;;;;;3.33;1.65;;;;;;;16.60;100.00;96086.72;5078232;28;20203;-68
2023/07/23 03:47:42;;;;;;;3.25;1.48;;;;;;;16.59;100.00;96079.75;5077880;28;20955;-68
2023/07/23 03:50:09;;;;;;;4.03;2.25;;;;;;;16.64;100.00;96080.72;5078330;28;20250;-67
2023/07/23 03:52:36;;;;;;;3.40;1.85;;;;;;;16.58;100.00;96083.44;5078349;28;20210;-67
2023/07/23 03:55:03;;;;;;;8.50;2.00;;;;;;;16.60;100.00;96076.88;5078574;28;20224;-68
2023/07/23 03:57:31;;;;;;;4.78;2.28;;;;;;;16.79;100.00;96075.06;5077561;28;20207;-68
2023/07/23 03:59:57;;;;;;;6.93;2.40;;;;;;;16.68;100.00;96078.47;5077546;28;20219;-68
2023/07/23 04:02:24;;;;;;;4.18;1.90;;;;;;;16.69;100.00;96080.91;5078996;28;20219;-69
2023/07/23 04:04:50;;;;;;;3.60;2.13;;;;;;;16.73;100.00;96076.75;5077987;28;20200;-69
2023/07/23 04:07:17;;;;;;;3.40;1.85;;;;;;;16.72;100.00;96083.13;5076676;28;20696;-68
2023/07/23 04:09:43;;;;;;;5.60;2.10;;;;;;;16.73;100.00;96091.94;5077521;28;20246;-69
2023/07/23 04:12:11;;;;;;;3.95;1.92;;;;;;;16.90;100.00;96085.81;5078461;28;20204;-67
2023/07/23 04:14:42;;;;;;;4.53;1.85;;;;;;;17.00;100.00;96080.00;5077493;28;20199;-67
2023/07/23 04:17:09;;;;;;;3.45;1.60;;;;;;;16.96;100.00;96084.94;5076886;28;20210;-67
2023/07/23 04:19:35;;;;;;;3.10;1.92;;;;;;;17.02;100.00;96088.56;5077794;28;20204;-67
2023/07/23 04:22:03;;;;;;;4.60;1.92;;;;;;;17.10;100.00;96089.09;5077853;28;20203;-68
2023/07/23 04:24:29;;;;;;;3.67;1.95;;;;;;;17.14;100.00;96083.13;5077815;28;20235;-68
2023/07/23 04:26:56;;;;;;;3.35;1.75;;;;;;;17.18;100.00;96084.31;5076657;28;20199;-68
2023/07/23 04:29:22;;;;;;;3.45;1.85;;;;;;;17.25;100.00;96081.63;5077261;28;20207;-68
2023/07/23 04:31:50;;;;;;;2.75;1.73;;;;;;;17.43;100.00;96070.97;5077907;28;20203;-68
2023/07/23 04:34:17;;;;;;;3.00;1.70;;;;;;;17.21;100.00;96080.41;5077982;28;20584;-68
2023/07/23 04:36:43;;;;;;;2.53;1.70;;;;;;;17.37;100.00;96075.31;5077303;28;20227;-67
2023/07/23 04:39:10;;;;;;;3.30;1.85;;;;;;;17.42;100.00;96080.78;5076504;28;20651;-69
2023/07/23 04:41:37;;;;;;;3.22;1.65;;;;;;;17.57;100.00;96083.09;5077161;28;20223;-67
2023/07/23 04:44:04;;;;;;;2.53;1.63;;;;;;;17.85;100.00;96084.16;5077749;28;20288;-68
2023/07/23 04:46:30;;;;;;;2.67;1.60;;;;;;;18.23;100.00;96076.66;5077204;28;20235;-68
2023/07/23 04:48:58;;;;;;;3.13;1.73;;;;;;;18.42;100.00;96079.84;5076742;28;20196;-68
2023/07/23 04:51:25;;;;;;;2.78;1.50;;;;;;;18.55;100.00;96081.50;5077270;28;20231;-68
2023/07/23 04:53:51;;;;;;;2.83;1.40;;;;;;;18.54;100.00;96080.69;5076985;28;20204;-68
2023/07/23 04:56:18;;;;;;;2.83;1.40;;;;;;;18.42;100.00;96081.72;5077021;28;21113;-68
2023/07/23 04:58:44;;;;;;;2.20;1.50;;;;;;;18.18;100.00;96088.03;5076934;28;20215;-68
2023/07/23 05:01:12;;;;;;;2.75;1.33;;;;;;;18.44;100.00;96091.13;5076844;28;20220;-68
2023/07/23 05:03:40;;;;;;;2.50;1.88;;;;;;;18.71;100.00;96087.00;5076673;28;20364;-68
2023/07/23 05:06:08;;;;;;;3.17;1.30;;;;;;;18.63;100.00;96086.50;5077277;28;20192;-68
2023/07/23 05:08:35;;;;;;;5.10;2.22;;;;;;;18.99;100.00;96089.78;5076420;28;20208;-67
2023/07/23 05:11:04;;;;;;;3.35;1.75;;;;;;;18.96;100.00;96087.59;5076524;28;20229;-67
2023/07/23 05:13:31;;;;;;;2.35;1.23;;;;;;;19.17;100.00;96093.19;5076756;28;20200;-68
2023/07/23 05:15:59;;;;;;;4.25;1.92;;;;;;;19.49;100.00;96082.91;5077708;28;20220;-67
2023/07/23 05:18:25;;;;;;;3.05;1.35;;;;;;;19.51;100.00;96100.34;5076568;28;20200;-67
2023/07/23 05:20:52;;;;;;;3.47;1.60;;;;;;;19.50;100.00;96087.22;5076397;28;20219;-67
2023/07/23 05:23:20;;;;;;;1.75;1.30;;;;;;;19.57;100.00;96091.41;5077547;28;20286;-67
2023/07/23 05:25:46;;;;;;;3.60;1.73;;;;;;;19.64;98.38;96086.75;5076793;28;20203;-68
2023/07/23 05:28:12;;;;;;;1.80;1.10;;;;;;;19.69;100.00;96090.34;5076152;28;20215;-67
2023/07/23 05:30:40;;;;;;;2.83;1.48;;;;;;;19.84;98.48;96090.63;5076305;28;20619;-67
2023/07/23 05:33:07;;;;;;;4.05;1.67;;;;;;;19.77;100.00;96094.50;5077163;28;20652;-67
2023/07/23 05:35:33;;;;;;;3.67;1.63;;;;;;;20.06;98.59;96088.97;5076522;28;20228;-67
2023/07/23 05:38:00;;;;;;;1.60;0.90;;;;;;;19.68;100.00;96085.22;5075566;28;21096;-69
2023/07/23 05:40:30;;;;;;;2.38;1.10;;;;;;;20.09;99.98;96087.69;5076783;28;20227;-67
2023/07/23 05:42:56;;;;;;;7.00;1.48;;;;;;;20.16;98.19;96094.47;5076739;28;20571;-67
2023/07/23 05:45:23;;;;;;;2.25;1.38;;;;;;;20.25;99.40;96093.06;5076827;28;20204;-67
2023/07/23 05:47:50;;;;;;;1.60;1.10;;;;;;;20.13;99.41;96088.81;5075687;28;20718;-68
2023/07/23 05:50:16;;;;;;;3.00;1.50;;;;;;;20.38;98.27;96090.09;5076501;28;20230;-67
2023/07/23 05:52:43;;;;;;;4.05;1.58;;;;;;;20.17;100.00;96096.13;5076722;28;20211;-67
2023/07/23 05:55:09;;;;;;;2.92;1.63;;;;;;;20.15;99.03;96098.25;5076804;28;20403;-67
2023/07/23 05:57:37;;;;;;;2.17;1.33;;;;;;;20.34;100.00;96102.31;5075681;28;21018;-68
2023/07/23 06:00:05;;;;;;;2.55;1.40;;;;;;;20.33;99.66;96106.06;5075703;28;20227;-67
2023/07/23 06:02:31;;;;;;;3.95;1.52;;;;;;;20.54;97.54;96105.38;5078810;28;20208;-66
2023/07/23 06:04:58;;;;;;;1.55;1.23;;;;;;;20.65;98.11;96099.94;5079852;28;20204;-66
2023/07/23 06:07:24;;;;;;;3.10;1.35;;;;;;;20.52;99.40;96110.13;5079831;28;20671;-66
2023/07/23 06:09:51;;;;;;;3.13;1.45;;;;;;;20.58;99.33;96111.84;5078717;28;20231;-66
2023/07/23 06:12:17;;;;;;;1.75;1.20;;;;;;;20.71;98.18;96106.19;5079470;28;20233;-66
2023/07/23 06:14:45;;;;;;;3.38;1.50;;;;;;;20.93;98.24;96107.94;5078193;28;20204;-66
2023/07/23 06:17:12;;;;;;;2.20;1.13;;;;;;;20.84;97.96;96110.22;5077367;28;20478;-66
2023/07/23 06:19:38;;;;;;;1.85;1.27;;;;;;;20.94;95.93;96106.91;5077894;28;20227;-66
2023/07/23 06:22:05;;;;;;;2.42;1.50;;;;;;;20.77;94.72;96105.25;5077707;28;20207;-66
2023/07/23 06:24:31;;;;;;;2.33;1.40;;;;;;;21.03;94.59;96106.22;5077728;28;20286;-66
2023/07/23 06:26:58;;;;;;;1.95;1.35;;;;;;;21.22;93.29;96102.25;5077594;28;20565;-66
2023/07/23 06:29:26;;;;;;;5.00;1.60;;;;;;;21.27;93.14;96109.53;5077671;28;20203;-66
2023/07/23 06:31:54;;;;;;;1.42;1.10;;;;;;;21.01;92.44;96111.00;5077950;28;20870;-66
2023/07/23 06:34:20;;;;;;;3.70;1.40;;;;;;;20.97;90.66;96104.53;5078716;28;20208;-66
2023/07/23 06:36:47;;;;;;;2.92;1.30;;;;;;;21.16;89.99;96108.56;5077313;28;20228;-66
2023/07/23 06:39:14;;;;;;;2.30;1.38;;;;;;;20.93;92.16;96108.75;5075638;28;20243;-68
2023/07/23 06:41:41;;;;;;;1.65;1.13;;;;;;;21.33;92.36;96104.00;5078195;28;20304;-66
2023/07/23 06:44:08;;;;;;;2.65;1.50;;;;;;;21.19;91.50;96105.41;5080830;28;20260;-66
2023/07/23 06:46:34;;;;;;;1.70;1.27;;;;;;;21.35;91.24;96101.09;5081027;28;20219;-66
2023/07/23 06:49:02;;;;;;;2.72;1.25;;;;;;;21.67;90.96;96100.22;5080949;28;20220;-68
2023/07/23 06:51:28;;;;;;;1.90;0.98;;;;;;;21.71;92.04;96104.03;5082151;28;20227;-66
2023/07/23 06:53:55;;;;;;;3.17;1.40;;;;;;;21.78;92.29;96107.31;5081858;28;20206;-66
2023/07/23 06:56:21;;;;;;;2.60;1.60;;;;;;;21.91;88.85;96101.63;5081238;28;20235;-66
2023/07/23 06:58:48;;;;;;;2.53;1.45;;;;;;;22.02;89.66;96103.34;5080993;28;20222;-66
2023/07/23 07:01:14;;;;;;;1.95;1.40;;;;;;;21.97;90.36;96109.47;5081553;28;21136;-66
2023/07/23 07:03:41;;;;;;;3.25;1.60;;;;;;;22.25;89.71;96099.34;5080414;28;20200;-66
2023/07/23 07:06:09;;;;;;;2.55;1.33;;;;;;;22.60;87.15;96098.91;5081924;28;20208;-66
2023/07/23 07:08:35;;;;;;;1.27;1.00;;;;;;;22.24;89.87;96095.03;5080435;28;20203;-66
2023/07/23 07:11:03;;;;;;;1.55;0.93;;;;;;;22.76;87.45;96094.22;5080939;28;20716;-66
2023/07/23 07:13:31;;;;;;;1.92;1.15;;;;;;;22.77;86.09;96097.72;5080939;28;20203;-66
2023/07/23 07:15:58;;;;;;;2.28;1.30;;;;;;;22.74;85.00;96098.22;5080506;28;20223;-66
2023/07/23 07:18:26;;;;;;;2.13;1.20;;;;;;;23.09;85.13;96095.84;5080408;28;20582;-66
2023/07/23 07:20:58;;;;;;;2.92;0.98;;;;;;;23.24;83.70;96093.28;5080251;28;20231;-68
2023/07/23 07:23:26;;;;;;;1.92;1.52;;;;;;;23.28;80.52;96094.38;5080433;28;20667;-66
2023/07/23 07:25:54;;;;;;;1.10;0.90;;;;;;;23.02;78.10;96103.34;5080851;28;20200;-66
2023/07/23 07:28:20;;;;;;;2.33;1.23;;;;;;;23.05;76.57;96092.06;5080169;28;20223;-66
2023/07/23 07:30:46;;;;;;;1.23;0.85;;;;;;;23.11;77.64;96093.75;5080421;28;20247;-66
2023/07/23 07:33:13;;;;;;;2.40;1.20;;;;;;;23.33;77.58;96092.53;5080017;28;20585;-66
2023/07/23 07:35:40;;;;;;;2.17;1.40;;;;;;;23.54;74.38;96087.03;5078638;28;20207;-66
2023/07/23 07:38:06;;;;;;;1.95;1.13;;;;;;;23.44;75.13;96088.84;5078071;28;20692;-67
2023/07/23 07:40:39;;;;;;;2.45;1.17;;;;;;;23.80;72.15;96093.38;5078450;28;20938;-66
2023/07/23 07:43:06;;;;;;;4.82;0.82;;;;;;;23.58;71.86;96090.81;5078276;28;20204;-66
2023/07/23 07:45:32;;;;;;;1.85;0.98;;;;;;;23.78;73.40;96090.97;5079250;28;20208;-67
2023/07/23 07:47:59;;;;;;;3.65;1.00;;;;;;;24.07;70.45;96089.44;5077263;28;20595;-67
2023/07/23 07:50:25;;;;;;;0.90;0.80;;;;;;;24.20;69.20;96095.16;5078279;28;20227;-67
2023/07/23 07:52:52;;;;;;;2.22;1.13;;;;;;;24.12;68.67;96092.16;5078408;28;20253;-66
2023/07/23 07:55:19;;;;;;;0.68;0.50;;;;;;;24.15;66.46;96086.28;5078730;28;20212;-67
2023/07/23 07:57:47;;;;;;;1.48;0.80;;;;;;;24.59;66.78;96089.09;5076977;28;20227;-67
2023/07/23 08:00:14;;;;;;;2.88;1.40;;;;;;;24.71;65.38;96092.34;5077899;28;20228;-67
2023/07/23 08:02:42;;;;;;;3.58;1.20;;;;;;;24.87;66.12;96069.72;5078630;28;20204;-67
2023/07/23 08:05:10;;;;;;;3.72;1.02;;;;;;;24.85;63.93;96071.88;5078202;28;20203;-67
2023/07/23 08:07:37;;;;;;;2.42;1.17;;;;;;;24.55;64.54;96081.81;5077358;28;20203;-66
2023/07/23 08:10:04;;;;;;;1.42;1.10;;;;;;;24.75;63.56;96081.84;5078189;28;20586;-67
2023/07/23 08:12:31;;;;;;;1.55;1.08;;;;;;;24.89;62.24;96078.34;5077194;28;20436;-66
2023/07/23 08:14:59;;;;;;;5.72;0.90;;;;;;;25.39;63.20;96078.34;5075760;28;20508;-67
2023/07/23 08:17:27;;;;;;;1.80;0.88;;;;;;;25.05;60.85;96079.19;5076468;28;20220;-67
2023/07/23 08:19:54;;;;;;;1.85;0.95;;;;;;;24.95;61.89;96077.28;5076962;28;20228;-67
2023/07/23 08:22:21;;;;;;;0.50;0.40;;;;;;;24.95;59.18;96087.22;5076231;28;20210;-67
2023/07/23 08:24:48;;;;;;;1.80;0.80;;;;;;;24.84;59.67;96089.13;5075775;28;20219;-67
2023/07/23 08:27:22;;;;;;;2.03;1.00;;;;;;;25.16;61.41;96084.28;5075393;28;20239;-67
2023/07/23 08:29:48;;;;;;;1.95;0.90;;;;;;;25.22;59.05;96083.22;5077244;28;20227;-67
2023/07/23 08:32:19;;;;;;;2.17;1.08;;;;;;;25.46;58.94;96068.09;5077154;28;20207;-67
2023/07/23 08:34:46;;;;;;;1.75;0.90;;;;;;;25.47;60.39;96067.81;5075935;28;20223;-67
2023/07/23 08:37:13;;;;;;;2.00;1.15;;;;;;;25.58;60.93;96065.88;5075871;28;20845;-67
2023/07/23 08:39:40;;;;;;;5.22;0.90;;;;;;;25.83;61.52;96063.94;5076902;28;21139;-67
2023/07/23 08:42:23;;;;;;;1.20;0.80;;;;;;;26.05;58.63;96073.31;5077939;28;20218;-67
2023/07/23 08:45:15;;;;;;;1.38;0.70;;;;;;;26.27;54.83;96068.31;5077352;28;20207;-67
2023/07/23 08:47:47;;;;;;;0.93;0.63;;;;;;;26.16;55.32;96068.69;5076539;28;20806;-66
2023/07/23 08:50:14;;;;;;;0.82;0.60;;;;;;;25.96;53.99;96072.25;5077354;28;20220;-68
2023/07/23 08:52:42;;;;;;;0.80;0.60;;;;;;;26.12;55.79;96067.59;5077620;28;20292;-67
2023/07/23 08:55:09;;;;;;;1.45;0.90;;;;;;;26.27;55.24;96072.94;5076531;28;20298;-67
2023/07/23 08:57:36;;;;;;;3.03;1.27;;;;;;;26.33;53.95;96075.31;5075663;28;20711;-67
2023/07/23 09:00:03;;;;;;;1.02;0.70;;;;;;;26.43;53.12;96071.81;5078017;28;20223;-67
2023/07/23 09:02:30;;;;;;;3.55;0.85;;;;;;;26.27;53.99;96065.63;5077381;28;20219;-66
2023/07/23 09:04:58;;;;;;;1.08;0.70;;;;;;;26.34;55.10;96076.97;5076169;28;20204;-67
2023/07/23 09:07:26;;;;;;;2.00;0.70;;;;;;;26.38;55.00;96067.22;5076351;28;20218;-67
2023/07/23 09:09:52;;;;;;;1.38;0.73;;;;;;;26.26;56.07;96080.25;5077527;28;20220;-67
2023/07/23 09:12:19;;;;;;;1.55;0.50;;;;;;;26.16;53.47;96074.88;5076504;28;20586;-67
2023/07/23 09:14:46;;;;;;;0.80;0.57;;;;;;;26.35;54.63;96070.50;5076219;28;20219;-67
2023/07/23 09:17:19;;;;;;;1.65;0.90;;;;;;;27.02;54.51;96067.91;5076060;28;20226;-68
2023/07/23 09:19:46;;;;;;;1.50;0.65;;;;;;;26.87;54.43;96071.50;5076388;28;20224;-67
2023/07/23 09:22:17;;;;;;;1.52;0.93;;;;;;;27.17;53.82;96052.34;5077003;28;20200;-67
2023/07/23 09:24:43;;;;;;;1.58;0.88;;;;;;;27.05;53.63;96051.09;5076553;28;20212;-68
2023/07/23 09:27:11;;;;;;;1.20;0.70;;;;;;;26.99;52.04;96057.66;5075956;28;20215;-68
2023/07/23 09:29:40;;;;;;;1.00;0.70;;;;;;;27.11;51.13;96048.06;5075662;28;20302;-67
2023/07/23 09:32:22;;;;;;;1.17;0.75;;;;;;;27.38;51.46;96042.91;5076743;28;20212;-68
2023/07/23 09:34:48;;;;;;;1.38;0.73;;;;;;;27.22;50.68;96046.88;5074693;28;20211;-68
2023/07/23 09:37:16;;;;;;;3.92;1.05;;;;;;;27.46;50.69;96048.53;5075394;28;20243;-68
2023/07/23 09:39:43;;;;;;;1.10;0.70;;;;;;;27.47;49.96;96050.16;5075945;28;20235;-67
2023/07/23 09:42:11;;;;;;;1.25;0.60;;;;;;;27.30;49.31;96043.56;5076440;28;20218;-67
2023/07/23 09:44:39;;;;;;;1.35;0.90;;;;;;;27.41;50.00;96051.28;5076231;28;20229;-67
2023/07/23 09:47:06;;;;;;;0.95;0.60;;;;;;;27.72;50.51;96052.59;5075909;28;20196;-67
2023/07/23 09:49:33;;;;;;;2.50;0.90;;;;;;;27.82;51.65;96047.06;5076457;28;20195;-67
2023/07/23 09:52:07;;;;;;;1.35;0.73;;;;;;;27.89;49.59;96052.94;5075827;28;20196;-67
2023/07/23 09:54:35;;;;;;;1.38;0.68;;;;;;;27.94;49.31;96056.41;5076254;28;20242;-67
2023/07/23 09:57:03;;;;;;;1.75;0.80;;;;;;;28.04;50.48;96044.63;5076108;28;20653;-67
2023/07/23 09:59:31;;;;;;;0.82;0.47;;;;;;;28.00;49.78;96043.59;5075574;28;20208;-67
2023/07/23 10:01:58;;;;;;;3.00;2.00;;;;;;;27.93;50.46;96037.75;5076260;28;20196;-67
2023/07/23 10:04:24;;;;;;;492.30;318.15;;;;;;;28.28;50.51;96048.16;5077121;28;20659;-67
2023/07/23 10:06:51;;;;;;;7.80;3.90;;;;;;;28.78;50.31;96035.50;5071246;28;20199;-68
2023/07/23 10:09:19;;;;;;;5.55;2.92;;;;;;;28.85;50.14;96038.66;5076088;28;20208;-67
2023/07/23 10:11:47;;;;;;;2.53;1.10;;;;;;;28.70;49.68;96033.41;5076328;28;20212;-67
2023/07/23 10:14:13;;;;;;;1.30;0.80;;;;;;;28.70;49.12;96033.41;5075468;28;20208;-67
2023/07/23 10:16:43;;;;;;;0.45;0.45;;;;;;;28.51;47.71;96040.78;5077570;28;20215;-67
2023/07/23 10:19:11;;;;;;;0.40;0.40;;;;;;;28.50;48.12;96039.16;5079833;28;20207;-67
2023/07/23 10:21:38;;;;;;;0.73;0.68;;;;;;;28.44;48.85;96032.19;5079534;28;21122;-67
2023/07/23 10:24:06;;;;;;;2.47;1.10;;;;;;;28.61;48.61;96029.75;5080510;28;20200;-67
2023/07/23 10:26:41;;;;;;;8.13;1.60;;;;;;;29.27;48.64;96016.78;5080438;28;20211;-68
2023/07/23 10:29:14;;;;;;;1.17;0.60;;;;;;;29.02;47.90;96019.91;5079159;28;20203;-68
2023/07/23 10:31:42;;;;;;;1.42;0.80;;;;;;;28.82;47.93;96016.72;5079691;28;20293;-67
2023/07/23 10:34:43;;;;;;;2.10;0.65;;;;;;;29.95;46.46;96013.88;5080220;28;20211;-67
2023/07/23 10:37:14;;;;;;;2.33;1.33;;;;;;;29.31;47.61;96015.88;5079017;28;20292;-67
2023/07/23 10:39:42;;;;;;;1.67;1.05;;;;;;;29.53;47.61;96010.59;5079427;28;20223;-67
2023/07/23 10:42:09;;;;;;;2.17;1.23;;;;;;;29.16;45.99;96021.56;5079563;28;20203;-67
2023/07/23 10:44:38;;;;;;;2.40;0.98;;;;;;;29.39;46.53;96015.22;5079853;28;20234;-67
2023/07/23 10:47:29;;;;;;;2.38;1.00;;;;;;;29.56;46.49;96007.28;5078732;28;20204;-67
2023/07/23 10:50:10;;;;;;;3.80;1.42;;;;;;;29.21;47.35;96007.91;5079532;28;20933;-67
2023/07/23 10:52:37;;;;;;;2.00;1.15;;;;;;;29.17;48.52;95995.22;5079384;28;20199;-68
2023/07/23 10:55:04;;;;;;;2.88;1.00;;;;;;;28.68;48.03;95996.84;5079548;28;20235;-67
2023/07/23 10:57:32;;;;;;;2.40;1.02;;;;;;;28.77;47.79;96004.06;5078376;28;20231;-67
2023/07/23 11:00:00;;;;;;;0.73;0.50;;;;;;;28.98;47.37;95991.75;5079463;28;20595;-68
2023/07/23 11:02:27;;;;;;;4.10;1.17;;;;;;;29.13;46.93;95980.66;5078783;28;20218;-68
2023/07/23 11:04:56;;;;;;;1.55;0.90;;;;;;;29.40;46.16;95978.00;5079099;28;20208;-67
2023/07/23 11:07:26;;;;;;;3.42;1.30;;;;;;;29.33;46.60;95989.25;5078690;28;20223;-67
2023/07/23 11:09:55;;;;;;;3.75;1.25;;;;;;;29.03;48.08;95992.50;5078939;28;20230;-67
2023/07/23 11:12:23;;;;;;;1.38;0.73;;;;;;;29.55;46.59;95994.03;5078984;28;20208;-67
2023/07/23 11:14:52;;;;;;;3.05;1.25;;;;;;;29.94;46.61;95990.50;5079444;28;21267;-67
2023/07/23 11:17:20;;;;;;;1.65;1.10;;;;;;;29.40;45.64;95994.28;5078398;28;20235;-67
2023/07/23 11:19:48;;;;;;;3.83;1.67;;;;;;;29.32;46.55;95978.72;5078335;28;20238;-67
2023/07/23 11:22:14;;;;;;;4.20;1.20;;;;;;;28.74;47.53;95985.66;5079900;28;20200;-66
2023/07/23 11:24:41;;;;;;;1.05;0.57;;;;;;;29.11;47.58;95980.13;5078983;28;20208;-67
2023/07/23 11:27:10;;;;;;;1.90;1.05;;;;;;;29.14;47.17;95990.41;5077465;28;20212;-67
2023/07/23 11:29:36;;;;;;;0.98;0.63;;;;;;;28.92;46.63;95987.53;5078841;28;20216;-67
2023/07/23 11:32:04;;;;;;;2.42;1.33;;;;;;;28.55;47.24;95998.41;5078878;28;20204;-67